createdAt,value
2024-01-21T00:02:03.689Z,101796.08
2024-01-21T00:04:31.967Z,101799.93
2024-01-21T00:07:00.080Z,101803.58
2024-01-21T00:09:30.147Z,101806.54
2024-01-21T00:11:58.395Z,101806.38
2024-01-21T00:14:26.619Z,101805.69
2024-01-21T00:16:54.725Z,101813.21
2024-01-21T00:19:22.887Z,101822.96
2024-01-21T00:21:50.903Z,101824.21
2024-01-21T00:24:19.013Z,101826.83
2024-01-21T00:26:47.131Z,101834.16
2024-01-21T00:29:18.113Z,101839.38
2024-01-21T00:31:46.170Z,101843.55
2024-01-21T00:34:14.508Z,101841.81
2024-01-21T00:36:42.739Z,101848.45
2024-01-21T00:39:10.746Z,101850.89
2024-01-21T00:41:42.685Z,101854.70
2024-01-21T00:44:15.178Z,101859.08
2024-01-21T00:46:43.349Z,101861.88
2024-01-21T00:49:11.392Z,101865.38
2024-01-21T00:51:39.475Z,101867.33
2024-01-21T00:54:07.483Z,101870.98
2024-01-21T00:56:35.617Z,101872.77
2024-01-21T00:59:04.051Z,101875.75
2024-01-21T01:01:32.012Z,101876.48
2024-01-21T01:04:00.235Z,101881.73
2024-01-21T01:06:28.288Z,101883.70
2024-01-21T01:08:56.233Z,101885.66
2024-01-21T01:11:26.242Z,101888.66
2024-01-21T01:13:54.420Z,101894.79
2024-01-21T01:16:22.359Z,101897.13
2024-01-21T01:18:51.040Z,101905.02
2024-01-21T01:21:19.564Z,101910.13
2024-01-21T01:23:47.735Z,101914.21
2024-01-21T01:26:15.806Z,101916.20
2024-01-21T01:28:45.041Z,101913.69
2024-01-21T01:31:20.094Z,101913.08
2024-01-21T01:33:48.424Z,101917.65
2024-01-21T01:36:16.516Z,101923.63
2024-01-21T01:38:44.578Z,101924.38
2024-01-21T01:41:12.568Z,101925.47
2024-01-21T01:43:40.662Z,101926.21
2024-01-21T01:46:09.188Z,101928.17
2024-01-21T01:48:37.319Z,101933.61
2024-01-21T01:51:06.183Z,101941.81
2024-01-21T01:53:36.659Z,101947.77
2024-01-21T01:56:09.059Z,101950.42
2024-01-21T01:58:38.780Z,101951.86
2024-01-21T02:01:08.880Z,101953.95
2024-01-21T02:03:37.075Z,101958.15
2024-01-21T02:06:05.543Z,101958.33
2024-01-21T02:08:33.660Z,101956.62
2024-01-21T02:11:01.572Z,101955.60
2024-01-21T02:13:30.379Z,101955.98
2024-01-21T02:16:00.360Z,101956.38
2024-01-21T02:18:28.746Z,101960.73
2024-01-21T02:20:56.792Z,101962.34
2024-01-21T02:23:24.635Z,101969.46
2024-01-21T02:25:52.620Z,101975.38
2024-01-21T02:28:20.496Z,101985.96
2024-01-21T02:30:48.426Z,101988.58
2024-01-21T02:33:16.421Z,101989.98
2024-01-21T02:35:44.637Z,101990.86
2024-01-21T02:38:12.678Z,101991.91
2024-01-21T02:40:41.560Z,101990.70
2024-01-21T02:43:09.776Z,101988.10
2024-01-21T02:45:37.904Z,101992.29
2024-01-21T02:48:06.400Z,101992.47
2024-01-21T02:50:34.567Z,101997.33
2024-01-21T02:53:02.417Z,102006.69
2024-01-21T02:55:30.414Z,102006.52
2024-01-21T02:57:58.297Z,102005.14
2024-01-21T03:00:26.275Z,102000.98
2024-01-21T03:02:54.260Z,101997.19
2024-01-21T03:05:22.591Z,101994.77
2024-01-21T03:07:50.706Z,102000.66
2024-01-21T03:10:18.719Z,102005.15
2024-01-21T03:12:46.744Z,102003.77
2024-01-21T03:15:15.323Z,102008.27
2024-01-21T03:17:43.348Z,102009.64
2024-01-21T03:20:12.540Z,102008.61
2024-01-21T03:22:40.883Z,102010.50
2024-01-21T03:25:09.974Z,102008.75
2024-01-21T03:27:38.032Z,102013.07
2024-01-21T03:30:06.664Z,102016.52
2024-01-21T03:32:34.881Z,102022.39
2024-01-21T03:35:03.117Z,102022.89
2024-01-21T03:37:31.260Z,102023.21
2024-01-21T03:39:59.222Z,102023.88
2024-01-21T03:42:27.266Z,102024.04
2024-01-21T03:44:55.184Z,102021.42
2024-01-21T03:47:23.216Z,102024.86
2024-01-21T03:49:52.926Z,102026.06
2024-01-21T03:52:22.074Z,102032.96
2024-01-21T03:54:50.233Z,102034.84
2024-01-21T03:57:19.700Z,102039.31
2024-01-21T03:59:48.438Z,102039.46
2024-01-21T04:02:16.300Z,102039.62
2024-01-21T04:04:46.328Z,102043.39
2024-01-21T04:07:14.447Z,102044.41
2024-01-21T04:09:42.603Z,102045.64
2024-01-21T04:12:12.556Z,102047.85
2024-01-21T04:14:41.042Z,102052.15
2024-01-21T04:17:10.711Z,102059.05
2024-01-21T04:19:40.378Z,102058.01
2024-01-21T04:22:09.954Z,102057.48
2024-01-21T04:24:38.103Z,102058.17
2024-01-21T04:27:06.081Z,102056.09
2024-01-21T04:29:33.966Z,102055.57
2024-01-21T04:32:02.054Z,102060.76
2024-01-21T04:34:30.135Z,102065.06
2024-01-21T04:36:58.477Z,102068.16
2024-01-21T04:39:26.875Z,102068.52
2024-01-21T04:41:54.952Z,102070.23
2024-01-21T04:44:22.857Z,102071.08
2024-01-21T04:46:50.760Z,102070.53
2024-01-21T04:49:18.952Z,102072.78
2024-01-21T04:51:47.222Z,102075.17
2024-01-21T04:54:15.802Z,102077.56
2024-01-21T04:56:43.853Z,102084.29
2024-01-21T04:59:11.773Z,102088.25
2024-01-21T05:01:41.431Z,102081.67
2024-01-21T05:04:09.998Z,102082.86
2024-01-21T05:06:38.055Z,102084.08
2024-01-21T05:09:06.048Z,102085.64
2024-01-21T05:11:34.239Z,102087.53
2024-01-21T05:14:02.255Z,102089.44
2024-01-21T05:16:30.400Z,102084.08
2024-01-21T05:18:58.455Z,102085.45
2024-01-21T05:21:26.468Z,102088.58
2024-01-21T05:23:54.631Z,102088.23
2024-01-21T05:26:22.660Z,102083.04
2024-01-21T05:28:50.698Z,102082.51
2024-01-21T05:31:18.852Z,102080.42
2024-01-21T05:33:48.599Z,102083.69
2024-01-21T05:36:16.929Z,102085.92
2024-01-21T05:38:45.004Z,102087.63
2024-01-21T05:41:16.891Z,102090.21
2024-01-21T05:43:44.894Z,102091.40
2024-01-21T05:46:12.820Z,102096.91
2024-01-21T05:48:40.939Z,102097.08
2024-01-21T05:51:09.170Z,102100.86
2024-01-21T05:53:37.037Z,102108.63
2024-01-21T05:56:07.556Z,102105.83
2024-01-21T05:58:37.093Z,102107.74
2024-01-21T06:01:05.446Z,102108.59
2024-01-21T06:03:33.962Z,102109.28
2024-01-21T06:06:02.007Z,102113.60
2024-01-21T06:08:30.191Z,102114.96
2024-01-21T06:10:58.239Z,102114.80
2024-01-21T06:13:26.448Z,102113.92
2024-01-21T06:15:56.341Z,102113.40
2024-01-21T06:18:24.578Z,102115.48
2024-01-21T06:20:52.604Z,102121.19
2024-01-21T06:23:20.722Z,102125.69
2024-01-21T06:25:48.755Z,102126.91
2024-01-21T06:28:17.787Z,102130.05
2024-01-21T06:30:46.657Z,102132.30
2024-01-21T06:33:15.008Z,102137.35
2024-01-21T06:35:43.222Z,102141.17
2024-01-21T06:38:11.582Z,102145.36
2024-01-21T06:40:39.642Z,102145.72
2024-01-21T06:43:07.620Z,102150.42
2024-01-21T06:45:36.495Z,102150.63
2024-01-21T06:48:05.419Z,102156.69
2024-01-21T06:50:34.766Z,102154.64
2024-01-21T06:53:02.813Z,102157.80
2024-01-21T06:55:30.747Z,102157.98
2024-01-21T06:57:58.826Z,102170.45
2024-01-21T07:00:26.900Z,102173.60
2024-01-21T07:02:55.106Z,102170.52
2024-01-21T07:05:23.351Z,102167.44
2024-01-21T07:07:51.296Z,102166.27
2024-01-21T07:10:19.335Z,102168.20
2024-01-21T07:12:47.855Z,102170.13
2024-01-21T07:15:16.293Z,102171.37
2024-01-21T07:17:45.042Z,102171.92
2024-01-21T07:20:14.221Z,102173.67
2024-01-21T07:22:42.440Z,102172.33
2024-01-21T07:25:10.695Z,102170.09
2024-01-21T07:27:38.834Z,102169.41
2024-01-21T07:30:07.871Z,102176.17
2024-01-21T07:32:36.342Z,102178.77
2024-01-21T07:35:04.939Z,102180.50
2024-01-21T07:37:33.044Z,102175.83
2024-01-21T07:40:01.154Z,102179.14
2024-01-21T07:42:29.344Z,102179.33
2024-01-21T07:44:57.790Z,102182.11
2024-01-21T07:47:26.694Z,102185.77
2024-01-21T07:49:54.577Z,102183.89
2024-01-21T07:52:22.782Z,102184.80
2024-01-21T07:54:50.872Z,102187.06
2024-01-21T07:57:18.901Z,102190.03
2024-01-21T07:59:46.995Z,102190.77
2024-01-21T08:02:15.291Z,102185.07
2024-01-21T08:04:43.969Z,102188.92
2024-01-21T08:07:12.032Z,102191.73
2024-01-21T08:09:40.115Z,102193.67
2024-01-21T08:12:08.111Z,102198.04
2024-01-21T08:14:36.167Z,102195.30
2024-01-21T08:17:04.554Z,102201.90
2024-01-21T08:19:38.354Z,102198.30
2024-01-21T08:22:10.319Z,102199.38
2024-01-21T08:24:39.758Z,102200.77
2024-01-21T08:27:08.467Z,102200.60
2024-01-21T08:29:38.990Z,102199.40
2024-01-21T08:32:09.155Z,102195.60
2024-01-21T08:34:37.661Z,102200.45
2024-01-21T08:37:06.302Z,102200.29
2024-01-21T08:39:34.571Z,102201.66
2024-01-21T08:42:02.839Z,102194.37
2024-01-21T08:44:30.847Z,102198.34
2024-01-21T08:47:00.480Z,102197.80
2024-01-21T08:49:28.779Z,102199.88
2024-01-21T08:51:57.082Z,102200.36
2024-01-21T08:54:25.772Z,102200.69
2024-01-21T08:56:54.365Z,102201.86
2024-01-21T08:59:27.560Z,102202.86
2024-01-21T09:01:55.711Z,102200.42
2024-01-21T09:04:24.946Z,102203.51
2024-01-21T09:06:53.149Z,102205.40
2024-01-21T09:09:21.604Z,102209.35
2024-01-21T09:11:49.878Z,102202.87
2024-01-21T09:14:17.894Z,102204.92
2024-01-21T09:16:45.992Z,102201.58
2024-01-21T09:19:14.649Z,102201.20
2024-01-21T09:21:43.139Z,102204.29
2024-01-21T09:24:12.693Z,102200.44
2024-01-21T09:26:48.529Z,102195.55
2024-01-21T09:29:16.687Z,102192.89
2024-01-21T09:31:54.022Z,102191.63
2024-01-21T09:34:22.939Z,102189.15
2024-01-21T09:36:53.170Z,102185.11
2024-01-21T09:39:22.614Z,102187.33
2024-01-21T09:41:52.693Z,102190.80
2024-01-21T09:44:26.298Z,102189.35
2024-01-21T09:46:56.084Z,102194.17
2024-01-21T09:49:25.774Z,102195.70
2024-01-21T09:51:55.085Z,102196.88
2024-01-21T09:54:24.770Z,102196.67
2024-01-21T09:56:52.788Z,102197.86
2024-01-21T09:59:20.994Z,102199.57
2024-01-21T10:01:49.668Z,102197.62
2024-01-21T10:04:24.717Z,102193.23
2024-01-21T10:06:53.886Z,102187.45
2024-01-21T10:09:23.201Z,102186.54
2024-01-21T10:11:55.528Z,102178.84
2024-01-21T10:14:26.241Z,102178.80
2024-01-21T10:16:57.553Z,102181.54
2024-01-21T10:19:27.763Z,102170.34
2024-01-21T10:22:12.199Z,102172.55
2024-01-21T10:24:50.208Z,102166.03
2024-01-21T10:27:18.377Z,102171.21
2024-01-21T10:29:47.549Z,102167.34
2024-01-21T10:32:17.660Z,102171.64
2024-01-21T10:34:51.771Z,102166.70
2024-01-21T10:37:20.654Z,102169.08
2024-01-21T10:39:50.402Z,102167.45
2024-01-21T10:42:19.139Z,102161.31
2024-01-21T10:44:48.350Z,102156.56
2024-01-21T10:47:17.353Z,102159.14
2024-01-21T10:49:49.902Z,102153.67
2024-01-21T10:52:18.559Z,102155.70
2024-01-21T10:54:48.420Z,102157.42
2024-01-21T10:57:17.310Z,102156.34
2024-01-21T10:59:49.432Z,102158.77
2024-01-21T11:02:20.692Z,102160.65
2024-01-21T11:04:49.283Z,102160.83
2024-01-21T11:07:19.664Z,102158.89
2024-01-21T11:09:49.492Z,102162.00
2024-01-21T11:12:17.891Z,102162.86
2024-01-21T11:14:46.414Z,102159.17
2024-01-21T11:17:23.804Z,102158.80
2024-01-21T11:19:56.234Z,102151.63
2024-01-21T11:22:27.172Z,102147.59
2024-01-21T11:24:57.192Z,102146.84
2024-01-21T11:27:29.080Z,102146.46
2024-01-21T11:29:59.417Z,102146.14
2024-01-21T11:32:30.733Z,102147.34
2024-01-21T11:35:15.830Z,102144.55
2024-01-21T11:37:46.286Z,102142.77
2024-01-21T11:40:14.771Z,102146.43
2024-01-21T11:42:43.820Z,102143.81
2024-01-21T11:45:12.273Z,102142.55
2024-01-21T11:47:41.964Z,102140.09
2024-01-21T11:50:10.916Z,102138.67
2024-01-21T11:52:39.438Z,102137.27
2024-01-21T11:55:07.723Z,102136.92
2024-01-21T11:57:35.732Z,102137.10
2024-01-21T12:00:04.598Z,102142.16
2024-01-21T12:02:40.770Z,102142.00
2024-01-21T12:05:09.565Z,102136.77
2024-01-21T12:07:37.858Z,102138.02
2024-01-21T12:10:06.674Z,102136.27
2024-01-21T12:12:34.724Z,102130.88
2024-01-21T12:15:03.955Z,102131.75
2024-01-21T12:17:32.969Z,102128.30
2024-01-21T12:20:01.606Z,102128.48
2024-01-21T12:22:37.450Z,102127.77
2024-01-21T12:25:08.575Z,102122.55
2024-01-21T12:27:37.684Z,102115.06
2024-01-21T12:30:12.939Z,102112.29
2024-01-21T12:32:47.438Z,102108.45
2024-01-21T12:35:22.308Z,102107.75
2024-01-21T12:37:50.493Z,102095.38
2024-01-21T12:40:18.792Z,102089.98
2024-01-21T12:42:47.202Z,102080.02
2024-01-21T12:45:15.629Z,102080.89
2024-01-21T12:47:44.937Z,102086.13
2024-01-21T12:50:13.201Z,102082.30
2024-01-21T12:52:41.343Z,102082.48
2024-01-21T12:55:11.441Z,102083.88
2024-01-21T12:57:39.545Z,102084.23
2024-01-21T13:00:10.296Z,102077.77
2024-01-21T13:02:39.857Z,102077.58
2024-01-21T13:05:08.636Z,102073.22
2024-01-21T13:07:36.688Z,102080.00
2024-01-21T13:10:06.056Z,102084.01
2024-01-21T13:12:34.254Z,102078.78
2024-01-21T13:15:02.803Z,102073.89
2024-01-21T13:17:30.902Z,102074.58
2024-01-21T13:19:59.006Z,102072.66
2024-01-21T13:22:27.336Z,102074.38
2024-01-21T13:24:55.467Z,102071.41
2024-01-21T13:27:28.986Z,102069.50
2024-01-21T13:30:17.601Z,102075.95
2024-01-21T13:32:47.938Z,102071.02
2024-01-21T13:35:16.134Z,102079.23
2024-01-21T13:37:45.251Z,102081.32
2024-01-21T13:40:14.457Z,102081.84
2024-01-21T13:42:42.617Z,102082.90
2024-01-21T13:45:10.987Z,102076.77
2024-01-21T13:47:39.228Z,102079.73
2024-01-21T13:50:07.545Z,102075.21
2024-01-21T13:52:35.649Z,102078.88
2024-01-21T13:55:06.569Z,102076.77
2024-01-21T13:57:35.715Z,102079.07
2024-01-21T14:00:04.436Z,102080.64
2024-01-21T14:02:33.151Z,102080.66
2024-01-21T14:22:41.829Z,102080.16
2024-01-21T14:25:28.948Z,102076.56
2024-01-21T14:27:57.164Z,102075.38
2024-01-21T14:30:35.960Z,102078.91
2024-01-21T14:33:05.309Z,102081.73
2024-01-21T14:35:33.769Z,102085.21
2024-01-21T14:38:01.971Z,102078.27
2024-01-21T14:40:30.035Z,102071.33
2024-01-21T14:42:58.631Z,102071.88
2024-01-21T14:45:27.029Z,102071.04
2024-01-21T14:47:55.576Z,102066.73
2024-01-21T14:50:23.553Z,102061.88
2024-01-21T14:52:51.856Z,102059.46
2024-01-21T14:55:20.085Z,102053.76
2024-01-21T14:57:48.108Z,102056.92
2024-01-21T15:00:17.914Z,102059.20
2024-01-21T15:02:46.178Z,102060.11
2024-01-21T15:05:15.636Z,102059.64
2024-01-21T15:07:48.446Z,102055.81
2024-01-21T15:10:17.422Z,102050.63
2024-01-21T15:12:45.517Z,102042.29
2024-01-21T15:15:34.772Z,102047.18
2024-01-21T15:18:02.804Z,102048.27
2024-01-21T15:20:31.054Z,102048.63
2024-01-21T15:22:59.248Z,102045.87
2024-01-21T15:25:30.314Z,102041.71
2024-01-21T15:27:59.222Z,102036.33
2024-01-21T15:30:27.785Z,102030.60
2024-01-21T15:32:56.778Z,102024.35
2024-01-21T15:35:24.797Z,102024.36
2024-01-21T15:37:52.730Z,102022.48
2024-01-21T15:40:20.655Z,102015.73
2024-01-21T15:42:48.746Z,102016.45
2024-01-21T15:45:18.166Z,102018.58
2024-01-21T15:47:47.283Z,102020.69
2024-01-21T15:50:16.193Z,102023.50
2024-01-21T15:52:44.809Z,102013.77
2024-01-21T15:55:15.009Z,101998.66
2024-01-21T15:57:43.178Z,101996.95
2024-01-21T16:00:11.514Z,101985.33
2024-01-21T16:02:39.818Z,101981.00
2024-01-21T16:05:08.197Z,101980.35
2024-01-21T16:07:37.402Z,101981.77
2024-01-21T16:10:06.144Z,101986.47
2024-01-21T16:12:34.479Z,101988.06
2024-01-21T16:15:02.597Z,101977.29
2024-01-21T16:17:31.086Z,101976.60
2024-01-21T16:19:59.216Z,101978.01
2024-01-21T16:22:27.424Z,101975.06
2024-01-21T16:24:55.488Z,101970.38
2024-01-21T16:27:30.100Z,101967.77
2024-01-21T16:30:01.963Z,101963.25
2024-01-21T16:32:30.165Z,101961.70
2024-01-21T16:35:01.299Z,101967.29
2024-01-21T16:37:32.837Z,101968.86
2024-01-21T16:40:02.574Z,101969.04
2024-01-21T16:42:31.102Z,101972.52
2024-01-21T16:45:02.085Z,101976.88
2024-01-21T16:47:30.502Z,101980.70
2024-01-21T16:49:58.608Z,101979.84
2024-01-21T16:52:29.166Z,101976.89
2024-01-21T16:54:57.114Z,101985.23
2024-01-21T16:57:26.261Z,101998.64
2024-01-21T16:59:58.872Z,101996.37
2024-01-21T17:02:26.992Z,101990.44
2024-01-21T17:04:57.190Z,101989.23
2024-01-21T17:07:25.821Z,101973.91
2024-01-21T17:09:55.499Z,101970.95
2024-01-21T17:12:33.799Z,101970.09
2024-01-21T17:15:02.149Z,101964.52
2024-01-21T17:17:30.727Z,101951.83
2024-01-21T17:19:59.446Z,101949.95
2024-01-21T17:22:27.930Z,101949.77
2024-01-21T17:24:56.062Z,101949.27
2024-01-21T17:27:24.096Z,101947.17
2024-01-21T17:29:52.193Z,101942.15
2024-01-21T17:32:20.320Z,101936.92
2024-01-21T17:34:48.432Z,101930.49
2024-01-21T17:37:18.233Z,101929.63
2024-01-21T17:39:46.460Z,101931.55
2024-01-21T17:42:14.684Z,101920.95
2024-01-21T17:44:42.716Z,101913.10
2024-01-21T17:47:10.811Z,101905.95
2024-01-21T17:49:38.806Z,101904.73
2024-01-21T17:52:07.569Z,101913.08
2024-01-21T17:54:39.193Z,101912.58
2024-01-21T17:57:07.999Z,101917.24
2024-01-21T17:59:35.979Z,101917.60
2024-01-21T18:02:03.857Z,101936.22
2024-01-21T18:04:31.879Z,101933.26
2024-01-21T18:06:59.964Z,101923.48
2024-01-21T18:09:28.698Z,101919.48
2024-01-21T18:11:56.816Z,101908.16
2024-01-21T18:14:25.013Z,101900.34
2024-01-21T18:16:54.504Z,101887.98
2024-01-21T18:19:23.825Z,101880.67
2024-01-21T18:21:52.014Z,101872.51
2024-01-21T18:24:19.929Z,101877.40
2024-01-21T18:26:47.904Z,101902.98
2024-01-21T18:29:26.379Z,101920.73
2024-01-21T18:32:05.828Z,101914.48
2024-01-21T18:34:36.072Z,101901.08
2024-01-21T18:37:04.478Z,101886.46
2024-01-21T18:39:33.872Z,101867.52
2024-01-21T18:42:02.420Z,101853.80
2024-01-21T18:44:30.748Z,101844.27
2024-01-21T18:46:58.846Z,101846.90
2024-01-21T18:49:27.204Z,101848.33
2024-01-21T18:51:55.806Z,101840.67
2024-01-21T18:54:23.850Z,101845.40
2024-01-21T18:56:51.715Z,101837.41
2024-01-21T18:59:20.125Z,101828.92
2024-01-21T19:01:48.314Z,101814.48
2024-01-21T19:04:16.290Z,101812.75
2024-01-21T19:06:44.608Z,101818.86
2024-01-21T19:09:15.572Z,101805.12
2024-01-21T19:11:44.671Z,101805.83
2024-01-21T19:14:13.704Z,101803.23
2024-01-21T19:16:42.083Z,101795.75
2024-01-21T19:19:13.661Z,101781.84
2024-01-21T19:21:41.928Z,101777.67
2024-01-21T19:24:10.992Z,101775.61
2024-01-21T19:26:39.166Z,101763.98
2024-01-21T19:29:08.578Z,101755.11
2024-01-21T19:31:37.461Z,101746.09
2024-01-21T19:34:05.706Z,101735.66
2024-01-21T19:36:33.765Z,101725.27
2024-01-21T19:39:02.078Z,101737.77
2024-01-21T19:41:30.254Z,101752.39
2024-01-21T19:43:58.481Z,101765.11
2024-01-21T19:46:26.760Z,101761.96
2024-01-21T19:48:55.004Z,101766.31
2024-01-21T19:51:25.606Z,101762.83
2024-01-21T19:53:54.389Z,101758.66
2024-01-21T19:56:22.518Z,101741.81
2024-01-21T19:58:52.037Z,101734.00
2024-01-21T20:01:20.252Z,101735.91
2024-01-21T20:03:48.449Z,101738.52
2024-01-21T20:06:16.785Z,101739.05
2024-01-21T20:08:45.389Z,101736.29
2024-01-21T20:11:14.294Z,101732.66
2024-01-21T20:13:42.399Z,101725.55
2024-01-21T20:16:10.455Z,101724.36
2024-01-21T20:18:40.925Z,101725.27
2024-01-21T20:21:09.737Z,101725.27
2024-01-21T20:23:37.967Z,101728.41
2024-01-21T20:26:06.134Z,101722.68
2024-01-21T20:28:34.936Z,101713.48
2024-01-21T20:31:04.225Z,101703.77
2024-01-21T20:33:32.921Z,101699.77
2024-01-21T20:36:01.394Z,101694.56
2024-01-21T20:38:30.825Z,101682.75
2024-01-21T20:41:02.117Z,101675.80
2024-01-21T20:43:31.438Z,101665.52
2024-01-21T20:46:00.561Z,101665.52
2024-01-21T20:48:28.796Z,101671.06
2024-01-21T20:50:57.559Z,101669.83
2024-01-21T20:53:25.573Z,101678.34
2024-01-21T20:55:55.902Z,101672.05
2024-01-21T20:58:24.193Z,101662.83
2024-01-21T21:00:57.732Z,101662.48
2024-01-21T21:03:34.300Z,101662.83
2024-01-21T21:06:03.886Z,101667.86
2024-01-21T21:08:32.628Z,101651.15
2024-01-21T21:11:02.816Z,101646.63
2024-01-21T21:13:30.896Z,101642.95
2024-01-21T21:15:59.130Z,101635.63
2024-01-21T21:18:27.409Z,101630.38
2024-01-21T21:20:55.882Z,101636.81
2024-01-21T21:23:26.414Z,101639.39
2024-01-21T21:25:54.608Z,101639.23
2024-01-21T21:28:22.845Z,101641.15
2024-01-21T21:30:50.902Z,101638.03
2024-01-21T21:33:22.258Z,101635.26
2024-01-21T21:35:50.754Z,101628.85
2024-01-21T21:38:19.376Z,101626.77
2024-01-21T21:40:47.813Z,101622.23
2024-01-21T21:43:16.720Z,101623.09
2024-01-21T21:45:46.220Z,101625.33
2024-01-21T21:48:15.711Z,101636.64
2024-01-21T21:50:44.388Z,101640.64
2024-01-21T21:53:13.350Z,101639.11
2024-01-21T21:55:46.730Z,101640.84
2024-01-21T21:58:15.909Z,101648.67
2024-01-21T22:00:44.516Z,101657.02
2024-01-21T22:03:12.788Z,101654.02
2024-01-21T22:05:42.219Z,101641.66
2024-01-21T22:08:10.633Z,101639.54
2024-01-21T22:10:38.674Z,101636.03
2024-01-21T22:13:07.773Z,101628.54
2024-01-21T22:15:37.068Z,101633.02
2024-01-21T22:18:06.076Z,101624.86
2024-01-21T22:20:34.422Z,101617.36
2024-01-21T22:23:02.546Z,101611.59
2024-01-21T22:25:30.641Z,101611.93
2024-01-21T22:27:58.678Z,101608.30
2024-01-21T22:30:26.681Z,101595.08
2024-01-21T22:32:56.817Z,101593.86
2024-01-21T22:35:28.317Z,101594.77
2024-01-21T22:37:57.120Z,101595.48
2024-01-21T22:40:25.363Z,101589.22
2024-01-21T22:42:53.957Z,101594.45
2024-01-21T22:45:22.290Z,101595.85
2024-01-21T22:47:50.523Z,101588.55
2024-01-21T22:50:18.907Z,101587.50
2024-01-21T22:52:46.975Z,101589.92
2024-01-21T22:55:15.637Z,101593.73
2024-01-21T22:57:43.768Z,101589.89
2024-01-21T23:00:16.618Z,101578.38
2024-01-21T23:02:44.770Z,101575.60
2024-01-21T23:05:13.062Z,101571.58
2024-01-21T23:07:41.411Z,101565.14
2024-01-21T23:10:10.319Z,101567.76
2024-01-21T23:12:38.517Z,101560.27
2024-01-21T23:15:10.602Z,101556.27
2024-01-21T23:17:39.136Z,101558.02
2024-01-21T23:20:09.329Z,101556.06
2024-01-21T23:22:37.779Z,101549.65
2024-01-21T23:25:06.302Z,101542.36
2024-01-21T23:27:34.400Z,101538.20
2024-01-21T23:30:02.839Z,101531.76
2024-01-21T23:32:31.028Z,101527.77
2024-01-21T23:34:59.506Z,101522.87
2024-01-21T23:37:27.731Z,101513.63
2024-01-21T23:39:55.768Z,101512.23
2024-01-21T23:42:23.797Z,101514.83
2024-01-21T23:44:51.774Z,101518.65
2024-01-21T23:47:20.061Z,101522.47
2024-01-21T23:49:48.100Z,101522.45
2024-01-21T23:52:16.009Z,101518.30
2024-01-21T23:54:44.724Z,101517.95
2024-01-21T23:57:12.983Z,101519.32
2024-01-21T23:59:41.268Z,101513.40
